createdAt,value
2022-12-24T00:01:18.292Z,100.00
2022-12-24T00:03:44.832Z,100.00
2022-12-24T00:06:20.863Z,100.00
2022-12-24T00:08:47.913Z,100.00
2022-12-24T00:11:14.862Z,100.00
2022-12-24T00:13:41.388Z,100.00
2022-12-24T00:16:07.872Z,100.00
2022-12-24T00:18:37.512Z,100.00
2022-12-24T00:21:08.167Z,100.00
2022-12-24T00:23:34.731Z,100.00
2022-12-24T00:26:01.272Z,100.00
2022-12-24T00:28:30.980Z,100.00
2022-12-24T00:31:07.026Z,100.00
2022-12-24T00:33:33.548Z,100.00
2022-12-24T00:36:00.109Z,100.00
2022-12-24T00:38:27.914Z,100.00
2022-12-24T00:41:02.316Z,100.00
2022-12-24T00:43:32.334Z,100.00
2022-12-24T00:46:00.783Z,100.00
2022-12-24T00:48:29.683Z,100.00
2022-12-24T00:50:56.234Z,100.00
2022-12-24T00:53:22.852Z,100.00
2022-12-24T00:55:49.336Z,100.00
2022-12-24T00:58:15.991Z,100.00
2022-12-24T01:00:42.494Z,100.00
2022-12-24T01:03:09.112Z,100.00
2022-12-24T01:05:35.769Z,100.00
2022-12-24T01:08:02.284Z,100.00
2022-12-24T01:10:31.158Z,100.00
2022-12-24T01:12:57.665Z,100.00
2022-12-24T01:15:24.206Z,100.00
2022-12-24T01:17:50.761Z,100.00
2022-12-24T01:20:18.116Z,100.00
2022-12-24T01:22:44.774Z,100.00
2022-12-24T01:25:11.724Z,100.00
2022-12-24T01:27:38.664Z,100.00
2022-12-24T01:30:07.353Z,100.00
2022-12-24T01:32:33.905Z,100.00
2022-12-24T01:35:00.681Z,100.00
2022-12-24T01:37:27.172Z,100.00
2022-12-24T01:40:13.673Z,100.00
2022-12-24T01:43:06.975Z,100.00
2022-12-24T01:45:48.295Z,100.00
2022-12-24T01:48:35.841Z,100.00
2022-12-24T01:51:27.326Z,100.00
2022-12-24T01:54:06.289Z,100.00
2022-12-24T01:56:40.169Z,100.00
2022-12-24T01:59:10.526Z,100.00
2022-12-24T02:01:37.615Z,100.00
2022-12-24T02:04:13.423Z,100.00
2022-12-24T02:06:39.936Z,100.00
2022-12-24T02:09:07.265Z,100.00
2022-12-24T02:11:41.265Z,100.00
2022-12-24T02:14:08.128Z,100.00
2022-12-24T02:16:53.486Z,100.00
2022-12-24T02:19:35.224Z,100.00
2022-12-24T02:22:17.375Z,100.00
2022-12-24T02:25:02.155Z,100.00
2022-12-24T02:28:07.560Z,100.00
2022-12-24T02:30:43.693Z,100.00
2022-12-24T02:33:42.225Z,100.00
2022-12-24T02:36:16.901Z,100.00
2022-12-24T02:38:58.953Z,100.00
2022-12-24T02:41:50.116Z,100.00
2022-12-24T02:44:19.152Z,100.00
2022-12-24T02:46:47.725Z,100.00
2022-12-24T02:49:14.346Z,100.00
2022-12-24T02:51:40.874Z,100.00
2022-12-24T02:54:07.823Z,100.00
2022-12-24T02:57:03.481Z,100.00
2022-12-24T02:59:51.193Z,100.00
2022-12-24T03:02:53.044Z,100.00
2022-12-24T03:05:28.172Z,100.00
2022-12-24T03:08:28.029Z,100.00
2022-12-24T03:11:02.639Z,100.00
2022-12-24T03:13:29.760Z,100.00
2022-12-24T03:15:56.391Z,99.97
2022-12-24T03:18:26.320Z,100.00
2022-12-24T03:21:26.581Z,98.76
2022-12-24T03:23:54.510Z,98.23
2022-12-24T03:26:21.735Z,97.76
2022-12-24T03:28:48.974Z,97.53
2022-12-24T03:31:16.712Z,97.61
2022-12-24T03:33:43.241Z,97.10
2022-12-24T03:36:10.255Z,97.19
2022-12-24T03:38:39.364Z,97.27
2022-12-24T03:41:06.338Z,97.99
2022-12-24T03:43:33.427Z,98.80
2022-12-24T03:46:06.330Z,99.27
2022-12-24T03:48:35.246Z,99.39
2022-12-24T03:51:02.395Z,99.65
2022-12-24T03:53:29.000Z,99.82
2022-12-24T03:55:55.586Z,100.00
2022-12-24T03:58:22.082Z,100.00
2022-12-24T04:00:48.611Z,100.00
2022-12-24T04:03:15.270Z,100.00
2022-12-24T04:05:41.918Z,100.00
2022-12-24T04:08:08.400Z,100.00
2022-12-24T04:10:34.929Z,100.00
2022-12-24T04:13:01.454Z,100.00
2022-12-24T04:15:27.940Z,100.00
2022-12-24T04:17:54.453Z,100.00
2022-12-24T04:20:20.956Z,100.00
2022-12-24T04:22:47.487Z,100.00
2022-12-24T04:25:14.088Z,100.00
2022-12-24T04:27:43.413Z,100.00
2022-12-24T04:30:13.330Z,100.00
2022-12-24T04:32:39.905Z,100.00
2022-12-24T04:35:06.743Z,100.00
2022-12-24T04:37:34.516Z,100.00
2022-12-24T04:40:00.993Z,100.00
2022-12-24T04:42:27.549Z,100.00
2022-12-24T04:44:54.051Z,100.00
2022-12-24T04:47:20.528Z,100.00
2022-12-24T04:49:47.039Z,100.00
2022-12-24T04:52:13.580Z,100.00
2022-12-24T04:54:40.100Z,100.00
2022-12-24T04:57:06.622Z,100.00
2022-12-24T04:59:33.111Z,100.00
2022-12-24T05:01:59.819Z,100.00
2022-12-24T05:04:26.413Z,100.00
2022-12-24T05:06:52.912Z,100.00
2022-12-24T05:09:19.415Z,100.00
2022-12-24T05:11:45.898Z,100.00
2022-12-24T05:14:15.685Z,100.00
2022-12-24T05:16:43.972Z,100.00
2022-12-24T05:19:10.517Z,100.00
2022-12-24T05:21:37.113Z,100.00
2022-12-24T05:24:22.895Z,100.00
2022-12-24T05:26:54.632Z,100.00
2022-12-24T05:29:21.496Z,100.00
2022-12-24T05:31:48.140Z,100.00
2022-12-24T05:34:16.000Z,100.00
2022-12-24T05:36:44.552Z,100.00
2022-12-24T05:39:18.384Z,100.00
2022-12-24T05:41:47.905Z,100.00
2022-12-24T05:44:16.205Z,100.00
2022-12-24T05:46:46.038Z,100.00
2022-12-24T05:49:12.858Z,100.00
2022-12-24T05:51:40.465Z,100.00
2022-12-24T05:54:07.697Z,100.00
2022-12-24T05:56:34.251Z,100.00
2022-12-24T05:59:00.781Z,100.00
2022-12-24T06:01:27.998Z,100.00
2022-12-24T06:03:54.571Z,100.00
2022-12-24T06:06:24.530Z,100.00
2022-12-24T06:08:52.630Z,100.00
2022-12-24T06:11:22.459Z,100.00
2022-12-24T06:13:48.995Z,100.00
2022-12-24T06:16:18.477Z,100.00
2022-12-24T06:18:47.929Z,100.00
2022-12-24T06:21:17.454Z,100.00
2022-12-24T06:23:45.033Z,100.00
2022-12-24T06:26:20.220Z,100.00
2022-12-24T06:28:47.740Z,100.00
2022-12-24T06:31:16.714Z,100.00
2022-12-24T06:33:43.822Z,100.00
2022-12-24T06:36:17.439Z,100.00
2022-12-24T06:38:45.684Z,100.00
2022-12-24T06:41:12.228Z,100.00
2022-12-24T06:43:38.837Z,100.00
2022-12-24T06:46:05.728Z,100.00
2022-12-24T06:48:32.324Z,100.00
2022-12-24T06:51:01.385Z,100.00
2022-12-24T06:53:27.901Z,100.00
2022-12-24T06:56:01.723Z,100.00
2022-12-24T06:58:28.217Z,100.00
2022-12-24T07:00:54.722Z,100.00
2022-12-24T07:03:21.230Z,100.00
2022-12-24T07:05:51.043Z,100.00
2022-12-24T07:08:20.823Z,100.00
2022-12-24T07:10:54.348Z,100.00
2022-12-24T07:13:21.576Z,100.00
2022-12-24T07:16:02.116Z,100.00
2022-12-24T07:18:29.183Z,100.00
2022-12-24T07:20:55.805Z,100.00
2022-12-24T07:23:22.821Z,100.00
2022-12-24T07:25:49.373Z,100.00
2022-12-24T07:28:17.402Z,100.00
2022-12-24T07:30:44.162Z,100.00
2022-12-24T07:33:10.654Z,100.00
2022-12-24T07:35:37.163Z,100.00
2022-12-24T07:38:03.689Z,100.00
2022-12-24T07:40:30.239Z,100.00
2022-12-24T07:42:56.786Z,100.00
2022-12-24T07:45:23.311Z,100.00
2022-12-24T07:47:49.835Z,100.00
2022-12-24T07:50:18.462Z,100.00
2022-12-24T07:52:45.013Z,100.00
2022-12-24T07:55:11.535Z,100.00
2022-12-24T07:57:38.102Z,100.00
2022-12-24T08:00:05.144Z,100.00
2022-12-24T08:02:31.819Z,100.00
2022-12-24T08:04:58.480Z,100.00
2022-12-24T08:07:25.019Z,100.00
2022-12-24T08:09:51.510Z,100.00
2022-12-24T08:12:18.626Z,100.00
2022-12-24T08:14:45.127Z,100.00
2022-12-24T08:17:11.674Z,100.00
2022-12-24T08:19:38.213Z,100.00
2022-12-24T08:22:04.711Z,100.00
2022-12-24T08:24:31.275Z,100.00
2022-12-24T08:26:57.774Z,100.00
2022-12-24T08:29:24.282Z,100.00
2022-12-24T08:31:50.929Z,100.00
2022-12-24T08:34:20.316Z,100.00
2022-12-24T08:36:49.956Z,100.00
2022-12-24T08:39:27.209Z,100.00
2022-12-24T08:41:53.715Z,100.00
2022-12-24T08:44:20.358Z,100.00
2022-12-24T08:46:49.688Z,100.00
2022-12-24T08:49:18.703Z,100.00
2022-12-24T08:51:45.228Z,100.00
2022-12-24T08:54:11.724Z,100.00
2022-12-24T08:56:38.618Z,100.00
2022-12-24T08:59:05.288Z,100.00
2022-12-24T09:01:32.049Z,100.00
2022-12-24T09:03:58.632Z,100.00
2022-12-24T09:06:25.148Z,100.00
2022-12-24T09:08:51.658Z,100.00
2022-12-24T09:11:20.230Z,100.00
2022-12-24T09:13:49.982Z,100.00
2022-12-24T09:16:20.966Z,100.00
2022-12-24T09:18:50.657Z,100.00
2022-12-24T09:21:20.364Z,100.00
2022-12-24T09:23:49.977Z,100.00
2022-12-24T09:26:26.341Z,100.00
2022-12-24T09:28:53.812Z,100.00
2022-12-24T09:31:21.556Z,100.00
2022-12-24T09:33:51.700Z,100.00
2022-12-24T09:36:22.536Z,100.00
2022-12-24T09:38:49.181Z,100.00
2022-12-24T09:41:48.332Z,100.00
2022-12-24T09:44:25.451Z,100.00
2022-12-24T09:46:53.712Z,100.00
2022-12-24T09:49:31.108Z,100.00
2022-12-24T09:52:02.775Z,100.00
2022-12-24T09:54:34.772Z,100.00
2022-12-24T09:57:07.563Z,100.00
2022-12-24T09:59:45.400Z,97.76
2022-12-24T10:02:18.711Z,95.60
2022-12-24T10:04:47.865Z,94.85
2022-12-24T10:07:57.800Z,93.08
2022-12-24T10:10:48.589Z,94.63
2022-12-24T10:13:39.235Z,95.49
2022-12-24T10:16:50.069Z,98.08
2022-12-24T10:19:40.895Z,100.00
2022-12-24T10:22:22.701Z,100.00
2022-12-24T10:25:29.780Z,100.00
2022-12-24T10:27:59.698Z,100.00
2022-12-24T10:30:26.652Z,100.00
2022-12-24T10:32:56.791Z,100.00
2022-12-24T10:35:32.313Z,100.00
2022-12-24T10:37:58.889Z,100.00
2022-12-24T10:40:40.398Z,100.00
2022-12-24T10:43:28.482Z,100.00
2022-12-24T10:46:02.137Z,100.00
2022-12-24T10:48:58.205Z,100.00
2022-12-24T10:51:36.940Z,100.00
2022-12-24T10:54:07.857Z,100.00
2022-12-24T10:56:44.019Z,100.00
2022-12-24T10:59:33.709Z,100.00
2022-12-24T11:02:01.749Z,100.00
2022-12-24T11:04:31.599Z,100.00
2022-12-24T11:07:04.233Z,100.00
2022-12-24T11:09:32.314Z,100.00
2022-12-24T11:12:08.464Z,100.00
2022-12-24T11:14:41.160Z,100.00
2022-12-24T11:17:19.169Z,100.00
2022-12-24T11:19:51.663Z,100.00
2022-12-24T11:22:24.433Z,100.00
2022-12-24T11:25:25.407Z,100.00
2022-12-24T11:27:52.416Z,100.00
2022-12-24T11:30:26.783Z,100.00
2022-12-24T11:33:02.260Z,100.00
2022-12-24T11:35:32.391Z,100.00
2022-12-24T11:38:01.910Z,100.00
2022-12-24T11:40:36.730Z,100.00
2022-12-24T11:43:10.965Z,100.00
2022-12-24T11:45:53.631Z,100.00
2022-12-24T11:48:50.790Z,100.00
2022-12-24T11:51:26.030Z,100.00
2022-12-24T11:54:14.450Z,100.00
2022-12-24T11:56:45.378Z,100.00
2022-12-24T11:59:32.147Z,100.00
2022-12-24T12:02:11.194Z,100.00
2022-12-24T12:04:40.822Z,100.00
2022-12-24T12:07:30.476Z,100.00
2022-12-24T12:10:05.192Z,100.00
2022-12-24T12:12:40.479Z,100.00
2022-12-24T12:15:15.230Z,100.00
2022-12-24T12:18:01.377Z,100.00
2022-12-24T12:20:42.810Z,100.00
2022-12-24T12:23:27.881Z,100.00
2022-12-24T12:25:59.166Z,100.00
2022-12-24T12:28:34.232Z,100.00
2022-12-24T12:31:15.785Z,100.00
2022-12-24T12:33:56.868Z,100.00
2022-12-24T12:36:40.468Z,100.00
2022-12-24T12:39:12.276Z,100.00
2022-12-24T12:41:56.782Z,100.00
2022-12-24T12:45:01.133Z,100.00
2022-12-24T12:47:55.373Z,100.00
2022-12-24T12:50:40.703Z,100.00
2022-12-24T12:53:28.360Z,100.00
2022-12-24T12:56:28.220Z,100.00
2022-12-24T12:59:08.290Z,100.00
2022-12-24T13:01:35.112Z,100.00
2022-12-24T13:04:35.872Z,100.00
2022-12-24T13:07:24.270Z,100.00
2022-12-24T13:10:13.823Z,100.00
2022-12-24T13:12:55.168Z,100.00
2022-12-24T13:15:30.580Z,100.00
2022-12-24T13:18:37.737Z,100.00
2022-12-24T13:21:04.591Z,100.00
2022-12-24T13:23:31.329Z,100.00
2022-12-24T13:25:59.301Z,100.00
2022-12-24T13:28:25.772Z,100.00
2022-12-24T13:31:01.343Z,100.00
2022-12-24T13:33:34.055Z,100.00
2022-12-24T13:36:16.630Z,100.00
2022-12-24T13:38:49.891Z,100.00
2022-12-24T13:41:41.812Z,100.00
2022-12-24T13:44:13.535Z,100.00
2022-12-24T13:46:49.689Z,100.00
2022-12-24T13:49:36.233Z,100.00
2022-12-24T13:52:07.383Z,100.00
2022-12-24T13:54:35.561Z,100.00
2022-12-24T13:57:02.180Z,100.00
2022-12-24T13:59:38.842Z,100.00
2022-12-24T14:02:17.311Z,100.00
2022-12-24T14:04:44.296Z,100.00
2022-12-24T14:07:11.661Z,100.00
2022-12-24T14:09:38.326Z,100.00
2022-12-24T14:12:04.796Z,100.00
2022-12-24T14:14:35.003Z,100.00
2022-12-24T14:17:06.807Z,100.00
2022-12-24T14:19:40.828Z,100.00
2022-12-24T14:22:25.591Z,100.00
2022-12-24T14:24:57.965Z,100.00
2022-12-24T14:27:51.625Z,100.00
2022-12-24T14:30:29.793Z,100.00
2022-12-24T14:32:56.960Z,100.00
2022-12-24T14:35:25.355Z,100.00
2022-12-24T14:38:04.077Z,100.00
2022-12-24T14:40:53.486Z,100.00
2022-12-24T14:43:35.965Z,100.00
2022-12-24T14:46:21.640Z,100.00
2022-12-24T14:48:58.941Z,100.00
2022-12-24T14:51:39.373Z,100.00
2022-12-24T14:54:17.761Z,100.00
2022-12-24T14:56:44.474Z,100.00
2022-12-24T14:59:21.218Z,100.00
2022-12-24T15:01:47.936Z,100.00
2022-12-24T15:04:16.391Z,100.00
2022-12-24T15:06:49.987Z,100.00
2022-12-24T15:09:27.434Z,100.00
2022-12-24T15:11:57.095Z,100.00
2022-12-24T15:14:26.597Z,100.00
2022-12-24T15:17:01.948Z,100.00
2022-12-24T15:19:35.903Z,100.00
2022-12-24T15:22:04.684Z,100.00
2022-12-24T15:24:36.745Z,100.00
2022-12-24T15:27:15.351Z,100.00
2022-12-24T15:29:46.954Z,100.00
2022-12-24T15:32:15.326Z,100.00
2022-12-24T15:34:55.824Z,100.00
2022-12-24T15:37:27.184Z,100.00
2022-12-24T15:40:10.710Z,100.00
2022-12-24T15:42:42.446Z,100.00
2022-12-24T15:45:28.380Z,100.00
2022-12-24T15:48:10.513Z,100.00
2022-12-24T15:50:45.966Z,100.00
2022-12-24T15:53:22.218Z,100.00
2022-12-24T15:56:09.498Z,100.00
2022-12-24T15:58:44.569Z,100.00
2022-12-24T16:01:14.307Z,100.00
2022-12-24T16:03:54.529Z,100.00
2022-12-24T16:06:23.271Z,100.00
2022-12-24T16:08:52.739Z,100.00
2022-12-24T16:11:36.427Z,100.00
2022-12-24T16:14:13.256Z,100.00
2022-12-24T16:16:45.709Z,100.00
2022-12-24T16:19:23.428Z,100.00
2022-12-24T16:21:55.878Z,100.00
2022-12-24T16:24:30.483Z,100.00
2022-12-24T16:26:57.900Z,100.00
2022-12-24T16:29:24.682Z,100.00
2022-12-24T16:31:56.118Z,100.00
2022-12-24T16:34:26.877Z,100.00
2022-12-24T16:36:54.027Z,100.00
2022-12-24T16:39:30.199Z,100.00
2022-12-24T16:42:17.979Z,100.00
2022-12-24T16:44:45.003Z,100.00
2022-12-24T16:47:22.962Z,100.00
2022-12-24T16:49:53.374Z,100.00
2022-12-24T16:52:26.346Z,100.00
2022-12-24T16:54:53.107Z,100.00
2022-12-24T16:57:23.852Z,100.00
2022-12-24T16:59:53.822Z,100.00
2022-12-24T17:02:23.484Z,100.00
2022-12-24T17:04:53.155Z,100.00
2022-12-24T17:07:23.626Z,100.00
2022-12-24T17:09:53.000Z,100.00
2022-12-24T17:12:22.801Z,100.00
2022-12-24T17:14:52.338Z,100.00
2022-12-24T17:17:24.245Z,100.00
2022-12-24T17:19:54.754Z,100.00
2022-12-24T17:22:27.251Z,100.00
2022-12-24T17:24:55.277Z,100.00
2022-12-24T17:27:22.058Z,100.00
2022-12-24T17:29:51.505Z,100.00
2022-12-24T17:32:19.591Z,100.00
2022-12-24T17:34:46.254Z,100.00
2022-12-24T17:37:12.933Z,100.00
2022-12-24T17:39:39.858Z,100.00
2022-12-24T17:42:11.270Z,100.00
2022-12-24T17:44:43.787Z,100.00
2022-12-24T17:47:10.976Z,100.00
2022-12-24T17:49:37.666Z,100.00
2022-12-24T17:52:04.849Z,100.00
2022-12-24T17:54:31.550Z,100.00
2022-12-24T17:56:58.797Z,100.00
2022-12-24T17:59:25.575Z,100.00
2022-12-24T18:01:55.470Z,100.00
2022-12-24T18:04:22.093Z,100.00
2022-12-24T18:06:53.885Z,100.00
2022-12-24T18:09:26.201Z,100.00
2022-12-24T18:11:54.918Z,100.00
2022-12-24T18:14:24.185Z,100.00
2022-12-24T18:16:53.808Z,100.00
2022-12-24T18:19:23.484Z,100.00
2022-12-24T18:22:21.024Z,100.00
2022-12-24T18:25:56.812Z,100.00
2022-12-24T18:28:24.347Z,100.00
2022-12-24T18:31:03.872Z,100.00
2022-12-24T18:33:45.532Z,100.00
2022-12-24T18:36:12.400Z,100.00
2022-12-24T18:38:40.350Z,100.00
2022-12-24T18:41:10.025Z,100.00
2022-12-24T18:43:43.501Z,100.00
2022-12-24T18:46:18.027Z,100.00
2022-12-24T18:48:58.715Z,100.00
2022-12-24T18:52:04.798Z,100.00
2022-12-24T18:54:31.376Z,100.00
2022-12-24T18:56:57.906Z,100.00
2022-12-24T18:59:24.503Z,100.00
2022-12-24T19:01:51.997Z,100.00
2022-12-24T19:04:22.023Z,100.00
2022-12-24T19:06:53.398Z,100.00
2022-12-24T19:09:23.049Z,100.00
2022-12-24T19:11:52.230Z,100.00
2022-12-24T19:14:24.449Z,100.00
2022-12-24T19:16:54.069Z,100.00
2022-12-24T19:19:57.152Z,100.00
2022-12-24T19:22:53.830Z,100.00
2022-12-24T19:25:55.101Z,100.00
2022-12-24T19:28:26.054Z,100.00
2022-12-24T19:30:53.080Z,100.00
2022-12-24T19:33:23.786Z,100.00
2022-12-24T19:35:53.200Z,100.00
2022-12-24T19:38:31.087Z,100.00
2022-12-24T19:40:57.662Z,100.00
2022-12-24T19:46:14.258Z,100.00
2022-12-24T19:48:47.801Z,100.00
2022-12-24T19:51:14.299Z,100.00
2022-12-24T19:53:40.867Z,100.00
2022-12-24T19:56:10.441Z,100.00
2022-12-24T19:58:55.903Z,100.00
2022-12-24T20:01:38.288Z,100.00
2022-12-24T20:04:05.184Z,100.00
2022-12-24T20:06:34.247Z,100.00
2022-12-24T20:09:06.288Z,100.00
2022-12-24T20:11:33.671Z,100.00
2022-12-24T20:14:02.413Z,100.00
2022-12-24T20:16:29.777Z,100.00
2022-12-24T20:18:59.111Z,100.00
2022-12-24T20:21:26.626Z,100.00
2022-12-24T20:23:53.627Z,100.00
2022-12-24T20:26:26.162Z,100.00
2022-12-24T20:28:53.138Z,100.00
2022-12-24T20:31:23.669Z,100.00
2022-12-24T20:33:52.692Z,100.00
2022-12-24T20:36:24.490Z,100.00
2022-12-24T20:38:54.435Z,100.00
2022-12-24T20:41:25.134Z,100.00
2022-12-24T20:43:51.930Z,100.00
2022-12-24T20:46:23.287Z,100.00
2022-12-24T20:48:53.826Z,100.00
2022-12-24T20:51:25.985Z,100.00
2022-12-24T20:53:55.241Z,100.00
2022-12-24T20:56:22.300Z,100.00
2022-12-24T20:58:49.449Z,100.00
2022-12-24T21:01:24.251Z,100.00
2022-12-24T21:03:53.471Z,100.00
2022-12-24T21:06:24.611Z,100.00
2022-12-24T21:08:54.579Z,100.00
2022-12-24T21:11:42.359Z,100.00
2022-12-24T21:14:09.410Z,100.00
2022-12-24T21:16:37.118Z,100.00
2022-12-24T21:19:04.607Z,100.00
2022-12-24T21:21:31.476Z,100.00
2022-12-24T21:24:01.421Z,100.00
2022-12-24T21:26:30.070Z,100.00
2022-12-24T21:28:56.773Z,100.00
2022-12-24T21:31:23.427Z,100.00
2022-12-24T21:33:55.276Z,100.00
2022-12-24T21:36:26.971Z,100.00
2022-12-24T21:38:56.856Z,100.00
2022-12-24T21:41:23.787Z,100.00
2022-12-24T21:43:53.150Z,100.00
2022-12-24T21:46:25.243Z,100.00
2022-12-24T21:49:27.733Z,100.00
2022-12-24T21:51:54.240Z,100.00
2022-12-24T21:54:30.551Z,100.00
2022-12-24T21:57:25.030Z,100.00
2022-12-24T21:59:54.303Z,100.00
2022-12-24T22:02:28.587Z,100.00
2022-12-24T22:04:55.379Z,100.00
2022-12-24T22:07:46.291Z,100.00
2022-12-24T22:10:32.767Z,100.00
2022-12-24T22:13:00.814Z,100.00
2022-12-24T22:15:27.450Z,100.00
2022-12-24T22:17:53.945Z,100.00
2022-12-24T22:20:20.601Z,100.00
2022-12-24T22:22:48.892Z,100.00
2022-12-24T22:25:15.785Z,100.00
2022-12-24T22:27:42.311Z,100.00
2022-12-24T22:30:09.638Z,100.00
2022-12-24T22:32:36.310Z,100.00
2022-12-24T22:35:02.951Z,100.00
2022-12-24T22:37:29.583Z,100.00
2022-12-24T22:39:56.291Z,98.91
2022-12-24T22:42:25.903Z,99.17
2022-12-24T22:44:55.736Z,99.80
2022-12-24T22:47:26.423Z,100.00
2022-12-24T22:49:54.475Z,100.00
2022-12-24T22:52:20.985Z,100.00
2022-12-24T22:54:47.491Z,99.10
2022-12-24T22:57:14.034Z,100.00
2022-12-24T22:59:40.561Z,99.64
2022-12-24T23:02:08.094Z,100.00
2022-12-24T23:04:38.797Z,99.00
2022-12-24T23:07:07.659Z,98.29
2022-12-24T23:09:34.400Z,98.14
2022-12-24T23:12:01.435Z,98.91
2022-12-24T23:14:46.491Z,99.18
2022-12-24T23:17:13.243Z,99.03
2022-12-24T23:19:39.746Z,99.34
2022-12-24T23:22:06.713Z,99.54
2022-12-24T23:24:34.887Z,99.87
2022-12-24T23:27:01.685Z,100.00
2022-12-24T23:29:29.804Z,99.62
2022-12-24T23:31:59.903Z,98.86
2022-12-24T23:34:29.457Z,99.54
2022-12-24T23:36:59.011Z,99.69
2022-12-24T23:39:26.633Z,100.00
2022-12-24T23:41:53.169Z,100.00
2022-12-24T23:44:19.649Z,100.00
2022-12-24T23:46:46.209Z,100.00
2022-12-24T23:49:15.008Z,100.00
2022-12-24T23:51:41.567Z,100.00
2022-12-24T23:54:08.196Z,100.00
2022-12-24T23:56:34.721Z,100.00
2022-12-24T23:59:02.586Z,100.00
